createdAt,value
2022-12-23T00:00:29.724Z,2.17
2022-12-23T00:02:56.610Z,2.19
2022-12-23T00:05:23.526Z,2.22
2022-12-23T00:07:50.184Z,2.17
2022-12-23T00:10:17.095Z,2.17
2022-12-23T00:13:02.065Z,2.15
2022-12-23T00:15:28.818Z,2.07
2022-12-23T00:17:55.550Z,2.04
2022-12-23T00:20:22.252Z,2.03
2022-12-23T00:23:06.850Z,2.05
2022-12-23T00:25:41.177Z,2.10
2022-12-23T00:28:12.598Z,2.14
2022-12-23T00:30:52.779Z,2.21
2022-12-23T00:33:24.537Z,2.26
2022-12-23T00:35:52.184Z,2.31
2022-12-23T00:38:38.868Z,2.36
2022-12-23T00:41:27.478Z,2.41
2022-12-23T00:43:54.092Z,2.42
2022-12-23T00:46:20.785Z,2.44
2022-12-23T00:49:05.637Z,2.47
2022-12-23T00:51:32.343Z,2.51
2022-12-23T00:53:59.007Z,2.55
2022-12-23T00:56:25.648Z,2.55
2022-12-23T00:58:52.293Z,2.53
2022-12-23T01:01:37.670Z,2.53
2022-12-23T01:04:23.376Z,2.50
2022-12-23T01:06:50.126Z,2.49
2022-12-23T01:09:16.983Z,2.49
2022-12-23T01:11:43.641Z,2.47
2022-12-23T01:14:11.629Z,2.48
2022-12-23T01:16:39.101Z,2.50
2022-12-23T01:19:07.292Z,2.50
2022-12-23T01:21:34.609Z,2.47
2022-12-23T01:24:01.635Z,2.50
2022-12-23T01:26:28.519Z,2.48
2022-12-23T01:28:57.086Z,2.47
2022-12-23T01:31:25.924Z,2.43
2022-12-23T01:33:53.545Z,2.37
2022-12-23T01:36:21.354Z,2.32
2022-12-23T01:38:48.378Z,2.30
2022-12-23T01:41:37.195Z,2.27
2022-12-23T01:44:24.013Z,2.26
2022-12-23T01:46:50.791Z,2.26
2022-12-23T01:49:17.586Z,2.22
2022-12-23T01:51:44.372Z,2.18
2022-12-23T01:54:11.052Z,2.16
2022-12-23T01:56:39.947Z,2.17
2022-12-23T01:59:10.126Z,2.21
2022-12-23T02:01:55.758Z,2.23
2022-12-23T02:04:24.904Z,2.23
2022-12-23T02:07:10.439Z,2.23
2022-12-23T02:09:40.972Z,2.21
2022-12-23T02:12:21.658Z,2.21
2022-12-23T02:15:07.034Z,2.21
2022-12-23T02:17:54.717Z,2.21
2022-12-23T02:20:24.002Z,2.20
2022-12-23T02:22:59.884Z,2.20
2022-12-23T02:25:38.639Z,2.20
2022-12-23T02:28:36.884Z,2.21
2022-12-23T02:31:12.540Z,2.28
2022-12-23T02:34:11.628Z,2.36
2022-12-23T02:36:51.580Z,2.42
2022-12-23T02:39:46.014Z,2.51
2022-12-23T02:42:20.486Z,2.57
2022-12-23T02:44:53.307Z,2.63
2022-12-23T02:47:27.931Z,2.69
2022-12-23T02:50:02.836Z,2.76
2022-12-23T02:52:32.831Z,2.82
2022-12-23T02:55:05.635Z,2.88
2022-12-23T02:57:37.249Z,2.92
2022-12-23T03:00:05.747Z,2.97
2022-12-23T03:02:37.472Z,3.01
2022-12-23T03:05:04.743Z,3.05
2022-12-23T03:07:36.760Z,3.10
2022-12-23T03:10:40.233Z,3.14
2022-12-23T03:13:34.792Z,3.18
2022-12-23T03:16:20.791Z,3.21
2022-12-23T03:19:32.528Z,3.23
2022-12-23T03:22:21.875Z,3.26
2022-12-23T03:24:48.531Z,3.29
2022-12-23T03:27:31.317Z,3.32
2022-12-23T03:30:09.445Z,3.36
2022-12-23T03:32:43.951Z,3.41
2022-12-23T03:35:16.299Z,3.43
2022-12-23T03:37:44.975Z,3.42
2022-12-23T03:40:20.816Z,3.41
2022-12-23T03:42:52.373Z,3.44
2022-12-23T03:45:41.548Z,3.49
2022-12-23T03:48:21.738Z,3.54
2022-12-23T03:50:56.115Z,3.60
2022-12-23T03:53:31.151Z,3.64
2022-12-23T03:56:09.355Z,3.68
2022-12-23T03:58:44.998Z,3.71
2022-12-23T04:01:39.652Z,3.75
2022-12-23T04:04:22.292Z,3.78
2022-12-23T04:06:58.329Z,3.83
2022-12-23T04:09:28.020Z,3.87
2022-12-23T04:11:55.586Z,3.91
2022-12-23T04:14:22.734Z,3.93
2022-12-23T04:16:56.131Z,3.96
2022-12-23T04:19:23.038Z,3.97
2022-12-23T04:21:49.933Z,4.01
2022-12-23T04:24:16.627Z,4.05
2022-12-23T04:26:43.265Z,4.09
2022-12-23T04:29:10.024Z,4.14
2022-12-23T04:31:36.871Z,4.18
2022-12-23T04:34:03.691Z,4.20
2022-12-23T04:36:30.748Z,4.26
2022-12-23T04:38:57.500Z,4.29
2022-12-23T04:41:24.446Z,4.34
2022-12-23T04:43:53.250Z,4.38
2022-12-23T04:46:20.554Z,4.45
2022-12-23T04:48:47.252Z,4.50
2022-12-23T04:51:13.996Z,4.55
2022-12-23T04:53:40.637Z,4.60
2022-12-23T04:56:07.337Z,4.66
2022-12-23T04:58:34.064Z,4.72
2022-12-23T05:01:05.957Z,4.81
2022-12-23T05:03:32.866Z,4.93
2022-12-23T05:06:00.021Z,5.04
2022-12-23T05:08:26.749Z,5.11
2022-12-23T05:10:53.402Z,5.18
2022-12-23T05:13:20.411Z,5.26
2022-12-23T05:15:50.236Z,5.37
2022-12-23T05:18:17.139Z,5.46
2022-12-23T05:20:44.152Z,5.51
2022-12-23T05:23:11.163Z,5.54
2022-12-23T05:25:39.160Z,5.56
2022-12-23T05:28:08.002Z,5.61
2022-12-23T05:30:34.693Z,5.66
2022-12-23T05:33:01.426Z,5.68
2022-12-23T05:35:28.427Z,5.71
2022-12-23T05:37:55.158Z,5.78
2022-12-23T05:40:26.519Z,5.84
2022-12-23T05:42:55.812Z,5.89
2022-12-23T05:45:22.860Z,5.90
2022-12-23T05:47:49.510Z,5.92
2022-12-23T05:50:16.180Z,5.96
2022-12-23T05:52:42.806Z,6.01
2022-12-23T05:55:09.660Z,6.03
2022-12-23T05:57:36.300Z,6.05
2022-12-23T06:00:04.274Z,6.08
2022-12-23T06:02:31.136Z,6.09
2022-12-23T06:04:58.167Z,6.12
2022-12-23T06:07:24.799Z,6.14
2022-12-23T06:09:51.591Z,6.15
2022-12-23T06:12:18.278Z,6.19
2022-12-23T06:14:44.933Z,6.21
2022-12-23T06:17:11.555Z,6.23
2022-12-23T06:19:38.143Z,6.25
2022-12-23T06:22:04.836Z,6.26
2022-12-23T06:24:31.576Z,6.29
2022-12-23T06:26:58.260Z,6.30
2022-12-23T06:29:25.451Z,6.31
2022-12-23T06:31:52.253Z,6.33
2022-12-23T06:34:18.940Z,6.34
2022-12-23T06:36:45.675Z,6.36
2022-12-23T06:39:12.399Z,6.38
2022-12-23T06:41:39.077Z,6.37
2022-12-23T06:44:06.001Z,6.37
2022-12-23T06:46:33.075Z,6.39
2022-12-23T06:48:59.769Z,6.42
2022-12-23T06:51:26.489Z,6.42
2022-12-23T06:53:53.338Z,6.40
2022-12-23T06:56:20.612Z,6.42
2022-12-23T06:58:47.343Z,6.44
2022-12-23T07:01:14.188Z,6.45
2022-12-23T07:03:41.029Z,6.44
2022-12-23T07:06:08.027Z,6.46
2022-12-23T07:08:34.702Z,6.45
2022-12-23T07:11:03.468Z,6.45
2022-12-23T07:13:31.229Z,6.50
2022-12-23T07:16:06.185Z,6.53
2022-12-23T07:18:36.128Z,6.55
2022-12-23T07:21:03.839Z,6.56
2022-12-23T07:23:30.766Z,6.59
2022-12-23T07:25:57.657Z,6.58
2022-12-23T07:28:24.474Z,6.58
2022-12-23T07:30:51.560Z,6.56
2022-12-23T07:33:18.210Z,6.50
2022-12-23T07:35:44.893Z,6.50
2022-12-23T07:38:11.596Z,6.49
2022-12-23T07:40:38.284Z,6.48
2022-12-23T07:43:05.732Z,6.46
2022-12-23T07:45:32.554Z,6.45
2022-12-23T07:48:01.144Z,6.43
2022-12-23T07:50:28.494Z,6.42
2022-12-23T07:52:55.238Z,6.41
2022-12-23T07:55:22.291Z,6.39
2022-12-23T07:57:50.144Z,6.37
2022-12-23T08:00:17.486Z,6.34
2022-12-23T08:02:44.314Z,6.32
2022-12-23T08:05:12.251Z,6.31
2022-12-23T08:07:39.632Z,6.28
2022-12-23T08:10:07.156Z,6.25
2022-12-23T08:12:34.131Z,6.22
2022-12-23T08:15:00.745Z,6.20
2022-12-23T08:17:29.266Z,6.18
2022-12-23T08:19:56.996Z,6.16
2022-12-23T08:22:24.668Z,6.16
2022-12-23T08:24:52.660Z,6.16
2022-12-23T08:27:19.792Z,6.15
2022-12-23T08:29:46.503Z,6.18
2022-12-23T08:32:13.204Z,6.18
2022-12-23T08:34:39.990Z,6.17
2022-12-23T08:37:06.747Z,6.17
2022-12-23T08:39:33.453Z,6.19
2022-12-23T08:42:00.107Z,6.19
2022-12-23T08:44:28.146Z,6.19
2022-12-23T08:46:55.579Z,6.19
2022-12-23T08:49:22.958Z,6.20
2022-12-23T08:51:49.789Z,6.20
2022-12-23T08:54:17.536Z,6.21
2022-12-23T08:56:44.892Z,6.21
2022-12-23T08:59:19.291Z,6.21
2022-12-23T09:01:47.525Z,6.21
2022-12-23T09:04:14.663Z,6.23
2022-12-23T09:06:42.833Z,6.24
2022-12-23T09:09:11.917Z,6.23
2022-12-23T09:11:39.136Z,6.24
2022-12-23T09:14:08.602Z,6.25
2022-12-23T09:16:36.110Z,6.25
2022-12-23T09:19:03.176Z,6.25
2022-12-23T09:21:29.999Z,6.26
2022-12-23T09:23:56.704Z,6.28
2022-12-23T09:26:26.997Z,6.29
2022-12-23T09:28:57.520Z,6.29
2022-12-23T09:31:27.965Z,6.31
2022-12-23T09:33:59.401Z,6.33
2022-12-23T09:36:26.024Z,6.33
2022-12-23T09:38:57.407Z,6.35
2022-12-23T09:41:24.944Z,6.33
2022-12-23T09:43:54.478Z,6.33
2022-12-23T09:46:24.296Z,6.33
2022-12-23T09:49:13.174Z,6.34
2022-12-23T09:51:39.881Z,6.35
2022-12-23T09:54:23.153Z,6.34
2022-12-23T09:57:15.893Z,6.34
2022-12-23T09:59:54.523Z,6.31
2022-12-23T10:02:30.315Z,6.28
2022-12-23T10:05:09.915Z,6.28
2022-12-23T10:07:45.914Z,6.27
2022-12-23T10:10:25.296Z,6.28
2022-12-23T10:12:53.925Z,6.29
2022-12-23T10:15:29.995Z,6.31
2022-12-23T10:18:01.671Z,6.32
2022-12-23T10:20:44.593Z,6.34
2022-12-23T10:23:17.149Z,6.36
2022-12-23T10:25:51.120Z,6.41
2022-12-23T10:28:18.170Z,6.42
2022-12-23T10:31:17.188Z,6.46
2022-12-23T10:33:49.779Z,6.50
2022-12-23T10:36:28.086Z,6.53
2022-12-23T10:39:33.207Z,6.55
2022-12-23T10:42:29.678Z,6.59
2022-12-23T10:45:05.334Z,6.62
2022-12-23T10:47:47.193Z,6.65
2022-12-23T10:50:35.994Z,6.67
2022-12-23T10:53:10.161Z,6.68
2022-12-23T10:55:38.701Z,6.72
2022-12-23T10:58:11.381Z,6.75
2022-12-23T11:00:41.209Z,6.81
2022-12-23T11:03:17.790Z,6.84
2022-12-23T11:05:46.658Z,6.86
2022-12-23T11:08:13.420Z,6.89
2022-12-23T11:10:40.257Z,6.93
2022-12-23T11:13:06.924Z,6.96
2022-12-23T11:15:35.197Z,7.00
2022-12-23T11:18:22.130Z,7.03
2022-12-23T11:21:04.239Z,7.06
2022-12-23T11:23:35.157Z,7.07
2022-12-23T11:26:07.760Z,7.11
2022-12-23T11:28:38.312Z,7.13
2022-12-23T11:31:12.266Z,7.13
2022-12-23T11:33:53.006Z,7.15
2022-12-23T11:36:27.775Z,7.16
2022-12-23T11:39:00.052Z,7.17
2022-12-23T11:41:44.807Z,7.19
2022-12-23T11:44:26.483Z,7.23
2022-12-23T11:46:53.599Z,7.25
2022-12-23T11:49:23.108Z,7.27
2022-12-23T11:52:02.681Z,7.28
2022-12-23T11:54:29.955Z,7.28
2022-12-23T11:56:58.242Z,7.29
2022-12-23T11:59:40.721Z,7.31
2022-12-23T12:02:20.536Z,7.31
2022-12-23T12:04:58.078Z,7.29
2022-12-23T12:07:26.130Z,7.29
2022-12-23T12:09:56.654Z,7.27
2022-12-23T12:12:23.680Z,7.26
2022-12-23T12:14:56.995Z,7.27
2022-12-23T12:17:32.787Z,7.26
2022-12-23T12:20:14.693Z,7.27
2022-12-23T12:22:59.493Z,7.30
2022-12-23T12:25:44.348Z,7.31
2022-12-23T12:28:15.759Z,7.35
2022-12-23T12:30:57.852Z,7.40
2022-12-23T12:33:31.872Z,7.44
2022-12-23T12:36:12.799Z,7.44
2022-12-23T12:38:48.402Z,7.47
2022-12-23T12:41:31.288Z,7.48
2022-12-23T12:44:26.273Z,7.48
2022-12-23T12:47:44.867Z,7.51
2022-12-23T12:50:12.265Z,7.60
2022-12-23T12:52:42.902Z,7.71
2022-12-23T12:55:28.364Z,7.78
2022-12-23T12:57:55.631Z,7.80
2022-12-23T13:00:25.182Z,7.80
2022-12-23T13:03:11.442Z,7.81
2022-12-23T13:09:42.726Z,7.89
2022-12-23T13:16:35.296Z,8.25
2022-12-23T13:23:43.359Z,8.61
2022-12-23T13:30:38.322Z,8.76
2022-12-23T13:38:11.529Z,8.80
2022-12-23T13:41:30.281Z,8.79
2022-12-23T13:44:18.918Z,8.77
2022-12-23T13:47:59.672Z,8.75
2022-12-23T13:51:12.448Z,8.72
2022-12-23T13:58:18.795Z,8.63
2022-12-23T14:05:58.224Z,8.59
2022-12-23T14:08:46.237Z,8.57
2022-12-23T14:11:34.228Z,8.55
2022-12-23T14:18:44.890Z,8.54
2022-12-23T14:21:47.030Z,8.54
2022-12-23T14:25:04.623Z,8.55
2022-12-23T14:28:16.082Z,8.56
2022-12-23T14:35:22.789Z,8.64
2022-12-23T14:38:15.746Z,8.69
2022-12-23T14:41:25.816Z,8.66
2022-12-23T14:44:41.019Z,8.64
2022-12-23T14:47:30.562Z,8.61
2022-12-23T14:50:32.753Z,8.53
2022-12-23T14:57:27.703Z,8.45
2022-12-23T15:04:43.880Z,8.50
2022-12-23T15:07:36.542Z,8.50
2022-12-23T15:10:25.604Z,8.47
2022-12-23T15:17:31.946Z,8.40
2022-12-23T15:20:23.556Z,8.37
2022-12-23T15:27:29.691Z,8.33
2022-12-23T15:34:24.658Z,8.21
2022-12-23T15:37:15.840Z,8.15
2022-12-23T15:44:20.518Z,8.02
2022-12-23T15:51:57.705Z,7.89
2022-12-23T15:58:42.633Z,7.81
2022-12-23T16:10:23.001Z,7.68
2022-12-23T16:13:18.337Z,7.63
2022-12-23T16:16:39.068Z,7.58
2022-12-23T16:23:32.895Z,7.55
2022-12-23T16:26:21.421Z,7.55
2022-12-23T16:29:10.318Z,7.56
2022-12-23T16:40:14.318Z,7.50
2022-12-23T16:43:09.739Z,7.46
2022-12-23T16:49:33.424Z,7.42
2022-12-23T16:52:24.738Z,7.41
2022-12-23T16:55:16.797Z,7.41
2022-12-23T17:02:21.376Z,7.38
2022-12-23T17:05:15.433Z,7.36
2022-12-23T17:11:47.734Z,7.32
2022-12-23T17:14:21.281Z,7.31
2022-12-23T17:16:49.050Z,7.31
2022-12-23T17:19:19.283Z,7.31
2022-12-23T17:21:58.046Z,7.31
2022-12-23T17:24:26.894Z,7.29
2022-12-23T17:31:08.728Z,7.27
2022-12-23T17:38:01.801Z,7.27
2022-12-23T17:40:50.274Z,7.25
2022-12-23T17:43:37.214Z,7.27
2022-12-23T17:46:21.528Z,7.30
2022-12-23T17:52:38.791Z,7.34
2022-12-23T17:55:09.535Z,7.39
2022-12-23T17:57:36.148Z,7.43
2022-12-23T18:00:31.886Z,7.43
2022-12-23T18:07:18.375Z,7.39
2022-12-23T18:09:45.105Z,7.36
2022-12-23T18:16:01.957Z,7.27
2022-12-23T18:22:59.895Z,7.14
2022-12-23T18:25:46.916Z,7.08
2022-12-23T18:36:45.725Z,6.95
2022-12-23T18:39:32.724Z,6.93
2022-12-23T18:42:20.395Z,6.89
2022-12-23T18:45:41.902Z,6.89
2022-12-23T18:49:10.975Z,6.88
2022-12-23T18:52:45.957Z,6.85
2022-12-23T18:55:13.415Z,6.88
2022-12-23T18:58:38.059Z,6.85
2022-12-23T19:01:04.818Z,6.84
2022-12-23T19:03:32.620Z,6.82
2022-12-23T19:06:06.748Z,6.80
2022-12-23T19:08:35.359Z,6.78
2022-12-23T19:11:08.718Z,6.74
2022-12-23T19:13:35.361Z,6.69
2022-12-23T19:16:02.130Z,6.67
2022-12-23T19:18:28.855Z,6.65
2022-12-23T19:20:55.569Z,6.62
2022-12-23T19:23:22.200Z,6.60
2022-12-23T19:25:54.816Z,6.58
2022-12-23T19:32:15.574Z,6.62
2022-12-23T19:34:42.233Z,6.71
2022-12-23T19:37:08.983Z,6.78
2022-12-23T19:43:26.248Z,6.95
2022-12-23T19:46:00.040Z,6.98
2022-12-23T19:48:27.808Z,7.00
2022-12-23T19:50:57.493Z,7.03
2022-12-23T19:53:24.350Z,7.04
2022-12-23T19:56:13.569Z,7.10
2022-12-23T19:59:00.565Z,7.16
2022-12-23T20:01:47.761Z,7.20
2022-12-23T20:08:47.165Z,7.32
2022-12-23T20:15:25.065Z,7.43
2022-12-23T20:18:12.012Z,7.47
2022-12-23T20:29:20.686Z,7.59
2022-12-23T20:32:18.937Z,7.59
2022-12-23T20:34:45.649Z,7.61
2022-12-23T20:37:35.246Z,7.61
2022-12-23T20:40:02.096Z,7.61
2022-12-23T20:47:49.915Z,7.58
2022-12-23T20:57:57.357Z,7.55
2022-12-23T21:00:24.234Z,7.53
2022-12-23T21:06:52.202Z,7.47
2022-12-23T21:09:39.203Z,7.43
2022-12-23T21:12:26.675Z,7.39
2022-12-23T21:15:14.351Z,7.36
2022-12-23T21:18:01.307Z,7.37
2022-12-23T21:20:48.631Z,7.39
2022-12-23T21:23:40.799Z,7.39
2022-12-23T21:34:39.803Z,7.39
2022-12-23T21:41:30.521Z,7.41
2022-12-23T21:44:18.169Z,7.43
2022-12-23T21:47:05.335Z,7.43
2022-12-23T21:53:56.652Z,7.41
2022-12-23T21:56:44.032Z,7.38
2022-12-23T21:59:34.930Z,7.34
2022-12-23T22:06:38.557Z,7.34
2022-12-23T22:13:50.886Z,7.34
2022-12-23T22:16:20.848Z,7.33
2022-12-23T22:18:48.031Z,7.33
2022-12-23T22:24:56.354Z,7.34
2022-12-23T22:31:27.376Z,7.32
2022-12-23T22:33:54.082Z,7.32
2022-12-23T22:43:52.246Z,7.30
2022-12-23T22:46:19.249Z,7.30
2022-12-23T22:48:46.719Z,7.29
2022-12-23T22:51:24.952Z,7.27
2022-12-23T22:53:52.295Z,7.28
2022-12-23T23:04:02.019Z,7.24
2022-12-23T23:10:45.961Z,7.20
2022-12-23T23:13:12.579Z,7.15
2022-12-23T23:23:40.706Z,6.90
2022-12-23T23:27:11.907Z,6.84
2022-12-23T23:33:34.672Z,6.75
2022-12-23T23:44:02.476Z,6.55
2022-12-23T23:47:40.787Z,6.50
2022-12-23T23:54:18.355Z,6.41
